Terminal Aerodrome Forecast
Issued by NWS Mt. Holly, NJ

Home | Current Version | Previous Version | Text Only | Print | Product List | Glossary On
Versions: 1 2 3 4 5 6 7 8 9 10 11 12 13 14 15 16 17 18 19 20 21 22 23
000
FTUS41 KPHI 051735
TAFPHL
TAF
KPHL 051735Z 0518/0624 19006KT P6SM SCT030 BKN250
     FM060100 18004KT P6SM SCT250
     FM060600 VRB03KT P6SM OVC060
     FM061200 13006KT P6SM OVC060
     FM061700 13007KT P6SM OVC100=

USA.gov is the U.S. government's official web portal to all federal, state and local government web resources and services.